createdAt,value
2022-10-29T00:02:40.145Z,97407.47
2022-10-29T00:07:42.486Z,97389.31
2022-10-29T00:12:45.038Z,97389.97
2022-10-29T00:17:47.134Z,97402.06
2022-10-29T00:22:49.235Z,97389.19
2022-10-29T00:27:51.545Z,97380.69
2022-10-29T00:32:54.054Z,97381.47
2022-10-29T00:37:56.655Z,97382.66
2022-10-29T00:43:20.685Z,97379.31
2022-10-29T00:48:25.361Z,97394.38
2022-10-29T00:53:31.040Z,97379.88
2022-10-29T00:58:33.285Z,97387.47
2022-10-29T01:03:35.728Z,97336.06
2022-10-29T01:08:38.167Z,97371.06
2022-10-29T01:14:08.049Z,97383.06
2022-10-29T01:19:15.111Z,97367.31
2022-10-29T01:24:50.841Z,97370.66
2022-10-29T01:30:05.328Z,97371.88
2022-10-29T01:35:19.351Z,97345.97
2022-10-29T01:40:25.645Z,97351.69
2022-10-29T01:45:36.899Z,97352.25
2022-10-29T01:50:40.364Z,97344.69
2022-10-29T01:55:42.549Z,97345.47
2022-10-29T02:00:56.975Z,97322.53
2022-10-29T02:06:28.877Z,97313.31
2022-10-29T02:11:46.986Z,97328.69
2022-10-29T02:16:50.344Z,97336.16
2022-10-29T02:21:52.463Z,97326.63
2022-10-29T02:26:54.564Z,97334.44
2022-10-29T02:31:56.904Z,97310.09
2022-10-29T02:36:59.111Z,97336.06
2022-10-29T02:42:01.447Z,97318.22
2022-10-29T02:47:03.533Z,97333.50
2022-10-29T02:52:05.548Z,97312.69
2022-10-29T02:57:07.751Z,97329.66
2022-10-29T03:02:10.056Z,97311.72
2022-10-29T03:07:12.740Z,97309.09
2022-10-29T03:12:14.747Z,97315.34
2022-10-29T03:17:16.916Z,97303.59
2022-10-29T03:22:19.115Z,97301.16
2022-10-29T03:27:21.333Z,97317.13
2022-10-29T03:32:23.896Z,97298.91
2022-10-29T03:37:26.292Z,97290.34
2022-10-29T03:42:28.384Z,97310.44
2022-10-29T03:47:30.480Z,97306.22
2022-10-29T03:52:32.718Z,97301.06
2022-10-29T03:57:34.860Z,97296.84
2022-10-29T04:02:37.149Z,97292.50
2022-10-29T04:07:39.447Z,97295.88
2022-10-29T04:12:45.906Z,97288.38
2022-10-29T04:17:51.434Z,97284.28
2022-10-29T04:25:14.340Z,97296.16
2022-10-29T04:28:42.522Z,97290.03
2022-10-29T04:33:38.223Z,97289.22
2022-10-29T04:38:40.816Z,97282.44
2022-10-29T04:43:42.852Z,97298.94
2022-10-29T04:48:45.048Z,97293.09
2022-10-29T04:53:47.291Z,97279.75
2022-10-29T04:58:52.961Z,97297.16
2022-10-29T05:03:58.877Z,97296.38
2022-10-29T05:09:02.653Z,97299.91
2022-10-29T05:14:04.904Z,97280.81
2022-10-29T05:19:07.234Z,97311.56
2022-10-29T05:24:09.480Z,97308.13
2022-10-29T05:29:11.701Z,97299.59
2022-10-29T05:34:13.939Z,97292.41
2022-10-29T05:39:16.462Z,97314.34
2022-10-29T05:44:18.607Z,97306.31
2022-10-29T05:49:20.792Z,97303.59
2022-10-29T05:54:23.216Z,97305.31
2022-10-29T05:59:28.545Z,97309.50
2022-10-29T06:04:34.694Z,97310.16
2022-10-29T06:09:37.158Z,97313.25
2022-10-29T06:14:39.278Z,97320.53
2022-10-29T06:19:41.374Z,97321.97
2022-10-29T06:24:43.654Z,97315.63
2022-10-29T06:29:45.769Z,97306.56
2022-10-29T06:34:47.934Z,97318.41
2022-10-29T06:39:50.166Z,97321.16
2022-10-29T06:44:52.486Z,97279.47
